Time;durP1;ratioP1;P1;durP2;ratioP2;P2;SDS_P1;SDS_P2;PMS_P1;PMS_P2;Temp;Humidity;BMP_temperature;BMP_pressure;BME280_temperature;BME280_humidity;BME280_pressure;Samples;Min_cycle;Max_cycle;Signal;HPM_P1;HPM_P2
2022/07/17 00:04:43;;;;;;;4.75;0.80;;;18.50;42.90;20.70;94636.00;;;;10518316;28;45251;-61
2022/07/17 00:10:05;;;;;;;2.75;1.00;;;18.60;42.80;20.70;94653.00;;;;10518305;28;45231;-61
2022/07/17 00:15:27;;;;;;;1.63;0.80;;;18.60;42.70;20.60;94652.00;;;;10517522;28;45190;-61
2022/07/17 00:20:48;;;;;;;2.45;1.00;;;18.50;42.50;20.60;94641.00;;;;10518051;28;45124;-61
2022/07/17 00:26:09;;;;;;;1.13;0.70;;;18.50;42.50;20.60;94621.00;;;;10517375;28;45189;-61
2022/07/17 00:31:31;;;;;;;1.00;0.70;;;18.50;42.50;20.60;94637.00;;;;10517950;28;45110;-61
2022/07/17 00:36:52;;;;;;;3.28;1.00;;;18.50;42.50;20.60;94632.00;;;;10517280;28;45222;-61
2022/07/17 00:42:13;;;;;;;2.83;1.00;;;18.50;42.40;20.60;94642.00;;;;10522311;27;45823;-61
2022/07/17 00:47:51;;;;;;;1.23;0.80;;;18.50;42.70;20.60;94635.00;;;;10524308;28;45228;-60
2022/07/17 00:53:11;;;;;;;0.95;0.60;;;18.50;42.50;20.60;94624.00;;;;10524697;28;45543;-61
2022/07/17 00:58:36;;;;;;;1.15;0.70;;;18.50;42.60;20.60;94638.00;;;;10521836;28;45184;-61
2022/07/17 01:03:58;;;;;;;1.63;0.77;;;18.50;42.60;20.60;94644.00;;;;10518571;28;45757;-61
2022/07/17 01:09:19;;;;;;;1.10;0.80;;;18.50;42.80;20.60;94646.00;;;;10523489;28;45276;-61
2022/07/17 01:14:40;;;;;;;1.95;0.75;;;18.40;42.70;20.50;94643.00;;;;10523664;28;45702;-60
2022/07/17 01:20:03;;;;;;;1.52;0.70;;;18.40;42.70;20.60;94642.00;;;;10523513;28;45101;-61
2022/07/17 01:25:25;;;;;;;0.70;0.70;;;18.50;42.60;20.60;94626.00;;;;10523022;28;45102;-61
2022/07/17 01:30:48;;;;;;;1.58;0.80;;;18.50;42.70;20.50;94637.00;;;;10523260;28;45123;-61
2022/07/17 01:36:08;;;;;;;1.63;0.80;;;18.40;43.10;20.60;94619.00;;;;10522392;28;45745;-61
2022/07/17 01:41:30;;;;;;;1.42;0.77;;;18.40;43.00;20.60;94631.00;;;;10522770;28;45459;-61
2022/07/17 01:46:51;;;;;;;1.17;0.73;;;18.40;43.10;20.50;94620.00;;;;10522671;28;45244;-60
2022/07/17 01:52:11;;;;;;;1.85;1.05;;;18.40;43.00;20.50;94636.00;;;;10522209;28;45639;-61
2022/07/17 01:57:34;;;;;;;1.75;1.00;;;18.50;43.00;20.50;94617.00;;;;10522292;28;45694;-61
2022/07/17 02:02:54;;;;;;;1.50;0.90;;;18.40;42.60;20.50;94615.00;;;;10521812;28;45783;-61
2022/07/17 02:08:15;;;;;;;1.25;0.80;;;18.40;42.60;20.50;94612.00;;;;10522245;28;45391;-61
2022/07/17 02:13:37;;;;;;;1.02;0.73;;;18.40;42.70;20.50;94615.00;;;;10521804;28;45741;-60
2022/07/17 02:18:57;;;;;;;1.95;0.82;;;18.40;42.70;20.50;94614.00;;;;10521374;28;45242;-61
2022/07/17 02:24:18;;;;;;;1.70;1.00;;;18.40;42.60;20.50;94609.00;;;;10521452;28;45231;-61
2022/07/17 02:29:40;;;;;;;1.00;0.80;;;18.40;42.60;20.50;94598.00;;;;10520799;28;45158;-61
2022/07/17 02:35:00;;;;;;;3.17;1.00;;;18.40;42.70;20.50;94590.00;;;;10520502;28;45110;-61
2022/07/17 02:40:21;;;;;;;0.90;0.70;;;18.40;42.70;20.50;94593.00;;;;10521064;28;45455;-61
2022/07/17 02:45:43;;;;;;;1.55;0.90;;;18.40;42.60;20.50;94605.00;;;;10519749;28;45180;-60
2022/07/17 02:51:04;;;;;;;1.23;0.93;;;18.30;42.60;20.50;94608.00;;;;10520703;28;45788;-61
2022/07/17 02:56:25;;;;;;;2.13;0.90;;;18.40;42.70;20.40;94591.00;;;;10520105;28;45158;-60
2022/07/17 03:01:46;;;;;;;1.33;0.80;;;18.30;42.50;20.40;94591.00;;;;10519670;28;45325;-60
2022/07/17 03:07:07;;;;;;;1.17;0.88;;;18.30;42.50;20.40;94603.00;;;;10519421;28;45880;-61
2022/07/17 03:12:28;;;;;;;1.92;0.93;;;18.30;42.50;20.40;94592.00;;;;10520031;28;45172;-60
2022/07/17 03:17:50;;;;;;;1.98;1.10;;;18.30;42.50;20.40;94604.00;;;;10519272;28;45181;-61
2022/07/17 03:23:10;;;;;;;1.30;0.73;;;18.30;42.50;20.40;94595.00;;;;10519371;28;45193;-61
2022/07/17 03:28:31;;;;;;;2.25;1.08;;;18.30;42.40;20.40;94597.00;;;;10519771;28;45226;-61
2022/07/17 03:33:53;;;;;;;1.85;1.02;;;18.30;42.50;20.40;94585.00;;;;10526800;22;45167;-61
2022/07/17 03:39:14;;;;;;;1.75;1.05;;;18.30;42.40;20.40;94595.00;;;;10519546;28;45224;-62
2022/07/17 03:44:34;;;;;;;1.75;1.00;;;18.30;42.30;20.40;94581.00;;;;10519267;28;45750;-62
2022/07/17 03:49:56;;;;;;;2.38;1.05;;;18.30;42.40;20.40;94583.00;;;;10519493;28;45302;-62
2022/07/17 03:55:17;;;;;;;1.90;0.90;;;18.30;42.30;20.40;94596.00;;;;10519676;28;45813;-62
2022/07/17 04:00:37;;;;;;;1.20;0.70;;;18.30;42.20;20.40;94597.00;;;;10519661;28;45165;-61
2022/07/17 04:05:59;;;;;;;1.52;0.90;;;18.20;42.30;20.40;94598.00;;;;10519608;28;45869;-61
2022/07/17 04:11:20;;;;;;;1.38;0.90;;;18.30;42.30;20.30;94596.00;;;;10519431;28;45224;-61
2022/07/17 04:16:41;;;;;;;1.90;0.68;;;18.20;42.20;20.40;94602.00;;;;10522909;28;45941;-62
2022/07/17 04:22:03;;;;;;;1.13;0.80;;;18.20;42.20;20.30;94603.00;;;;10526410;28;45099;-62
2022/07/17 04:27:23;;;;;;;1.58;1.00;;;18.20;42.30;20.40;94590.00;;;;10525823;28;45769;-62
2022/07/17 04:32:44;;;;;;;1.70;0.80;;;18.20;42.20;20.30;94586.00;;;;10525656;28;45386;-62
2022/07/17 04:38:08;;;;;;;1.33;0.77;;;18.20;42.30;20.30;94605.00;;;;10555074;27;45147;-62
2022/07/17 04:43:28;;;;;;;2.13;0.77;;;18.20;42.30;20.30;94590.00;;;;10567838;27;45736;-62
2022/07/17 04:48:49;;;;;;;2.25;0.80;;;18.20;42.30;20.30;94607.00;;;;10567376;27;45140;-61
2022/07/17 04:54:11;;;;;;;1.35;0.90;;;18.20;42.30;20.30;94591.00;;;;10567191;27;46040;-61
2022/07/17 04:59:31;;;;;;;1.55;0.93;;;18.20;42.30;20.30;94594.00;;;;10567220;27;45199;-61
2022/07/17 05:04:52;;;;;;;1.45;0.80;;;18.20;42.60;20.30;94603.00;;;;10567329;27;45794;-62
2022/07/17 05:10:14;;;;;;;1.27;0.90;;;18.20;42.60;20.30;94603.00;;;;10567320;27;45156;-61
2022/07/17 05:15:34;;;;;;;1.65;0.77;;;18.20;42.60;20.30;94597.00;;;;10566782;27;45680;-62
2022/07/17 05:20:55;;;;;;;1.70;0.90;;;18.20;42.60;20.30;94595.00;;;;10567417;27;45227;-62
2022/07/17 05:26:17;;;;;;;1.63;0.90;;;18.20;43.20;20.30;94619.00;;;;10565829;27;45167;-62
2022/07/17 05:31:37;;;;;;;1.58;0.90;;;18.20;42.80;20.30;94624.00;;;;10567001;27;45186;-62
2022/07/17 05:36:58;;;;;;;1.55;0.90;;;18.20;42.90;20.30;94625.00;;;;10566123;27;45886;-61
2022/07/17 05:42:20;;;;;;;5.07;1.00;;;18.20;43.00;20.30;94627.00;;;;10567204;27;45977;-61
2022/07/17 05:47:40;;;;;;;1.80;1.00;;;18.20;42.70;20.30;94622.00;;;;10514498;28;45479;-62
2022/07/17 05:53:01;;;;;;;2.50;0.90;;;18.20;43.00;20.30;94620.00;;;;10522568;28;45189;-60
2022/07/17 05:58:23;;;;;;;1.30;0.70;;;18.20;43.50;20.30;94626.00;;;;10522993;28;45200;-62
2022/07/17 06:03:44;;;;;;;1.10;0.80;;;18.20;43.60;20.40;94627.00;;;;10507279;28;45413;-62
2022/07/17 06:09:04;;;;;;;1.85;0.82;;;18.30;43.60;20.40;94617.00;;;;10522145;28;45169;-62
2022/07/17 06:14:26;;;;;;;1.02;0.70;;;18.30;43.70;20.30;94619.00;;;;10522309;28;45224;-62
2022/07/17 06:19:51;;;;;;;1.77;0.93;;;18.20;43.70;20.40;94626.00;;;;10503894;28;45635;-62
2022/07/17 06:25:12;;;;;;;1.20;0.70;;;18.30;43.80;20.30;94630.00;;;;10481244;28;45280;-62
2022/07/17 06:30:35;;;;;;;1.63;0.80;;;18.20;43.70;20.30;94610.00;;;;10481906;28;45299;-61
2022/07/17 06:35:55;;;;;;;1.55;0.90;;;18.20;43.70;20.30;94607.00;;;;10489509;28;46096;-63
2022/07/17 06:41:16;;;;;;;1.70;0.85;;;18.20;43.90;20.30;94629.00;;;;10501596;28;45231;-62
2022/07/17 06:46:38;;;;;;;1.98;0.90;;;18.20;44.00;20.30;94629.00;;;;10481057;28;45192;-61
2022/07/17 06:51:59;;;;;;;1.10;0.77;;;18.20;44.10;20.30;94632.00;;;;10479862;28;45754;-61
2022/07/17 06:57:20;;;;;;;0.88;0.73;;;18.20;44.00;20.40;94631.00;;;;10480044;28;45818;-62
2022/07/17 07:02:42;;;;;;;1.65;0.80;;;18.20;44.30;20.40;94634.00;;;;10480434;28;45113;-61
2022/07/17 07:08:03;;;;;;;1.50;0.77;;;18.20;44.40;20.40;94634.00;;;;10479678;28;45841;-61
2022/07/17 07:13:24;;;;;;;1.42;0.90;;;18.30;44.70;20.40;94636.00;;;;10502150;28;45300;-62
2022/07/17 07:18:46;;;;;;;2.47;0.98;;;18.30;44.50;20.40;94630.00;;;;10514399;28;45209;-63
2022/07/17 07:24:06;;;;;;;2.08;0.90;;;18.30;44.90;20.40;94639.00;;;;10519211;28;45904;-62
2022/07/17 07:29:27;;;;;;;1.75;0.98;;;18.30;44.90;20.40;94646.00;;;;10519019;28;45146;-62
2022/07/17 07:34:49;;;;;;;2.03;0.90;;;18.30;45.20;20.60;94644.00;;;;10518887;28;45847;-63
2022/07/17 07:40:11;;;;;;;1.77;0.90;;;18.40;44.80;20.60;94638.00;;;;10519125;28;45146;-62
2022/07/17 07:45:32;;;;;;;1.45;0.80;;;18.50;44.80;20.60;94637.00;;;;10518207;28;45787;-63
2022/07/17 07:50:54;;;;;;;1.60;0.80;;;18.50;45.00;20.60;94632.00;;;;10523652;28;45522;-62
2022/07/17 07:56:14;;;;;;;1.73;0.80;;;18.50;45.50;20.70;94631.00;;;;10526183;28;45207;-63
2022/07/17 08:01:34;;;;;;;2.40;0.80;;;18.60;46.00;20.70;94626.00;;;;10526389;28;45319;-63
2022/07/17 08:06:57;;;;;;;2.60;1.08;;;18.60;46.10;20.60;94633.00;;;;10525664;28;45204;-62
2022/07/17 08:12:17;;;;;;;1.17;0.85;;;18.50;46.80;20.60;94641.00;;;;10525715;28;45266;-62
2022/07/17 08:17:38;;;;;;;2.17;0.90;;;18.50;46.70;20.70;94644.00;;;;10525764;28;45147;-62
2022/07/17 08:23:00;;;;;;;1.15;0.88;;;18.50;46.80;20.70;94639.00;;;;10525435;28;45163;-63
2022/07/17 08:28:21;;;;;;;2.05;1.00;;;18.50;46.90;20.70;94641.00;;;;10525608;28;45326;-62
2022/07/17 08:33:41;;;;;;;2.15;1.00;;;18.50;46.60;20.70;94646.00;;;;10524424;28;45199;-63
2022/07/17 08:39:04;;;;;;;1.45;0.80;;;18.60;46.50;20.70;94640.00;;;;10524814;28;45185;-62
2022/07/17 08:44:25;;;;;;;1.55;0.90;;;18.70;46.60;20.80;94655.00;;;;10525113;28;45176;-62
2022/07/17 08:49:49;;;;;;;1.33;0.90;;;18.70;46.80;20.80;94643.00;;;;10524349;28;45214;-62
2022/07/17 08:55:13;;;;;;;1.50;0.70;;;18.70;46.90;20.80;94658.00;;;;10524567;28;45867;-63
2022/07/17 09:00:34;;;;;;;1.63;0.90;;;18.70;46.80;20.80;94657.00;;;;10523511;27;45259;-62
2022/07/17 09:05:55;;;;;;;1.40;1.00;;;18.70;47.00;20.80;94658.00;;;;10523420;28;45409;-63
2022/07/17 09:11:16;;;;;;;1.20;0.80;;;18.70;46.90;20.80;94642.00;;;;10523926;28;45862;-62
2022/07/17 09:16:48;;;;;;;1.58;0.85;;;18.70;47.00;20.80;94659.00;;;;10518687;28;45222;-61
2022/07/17 09:22:12;;;;;;;1.52;0.65;;;18.70;47.00;20.80;94660.00;;;;10521208;28;45120;-62
2022/07/17 09:27:35;;;;;;;1.38;0.80;;;18.70;47.10;20.90;94652.00;;;;10517845;28;45549;-62
2022/07/17 09:32:56;;;;;;;1.58;0.70;;;18.80;47.50;20.90;94664.00;;;;10521513;28;45431;-61
2022/07/17 09:38:31;;;;;;;1.27;0.77;;;18.80;47.50;20.90;94654.00;;;;10523067;28;45238;-62
2022/07/17 09:43:57;;;;;;;1.15;0.80;;;18.80;47.30;20.90;94660.00;;;;10522791;28;45232;-62
2022/07/17 09:49:20;;;;;;;2.47;1.00;;;18.80;47.40;20.90;94657.00;;;;10522412;28;45212;-62
2022/07/17 09:54:41;;;;;;;1.20;0.80;;;18.80;47.40;20.90;94671.00;;;;10522317;28;45120;-61
2022/07/17 10:00:11;;;;;;;1.35;0.80;;;18.80;47.60;20.90;94658.00;;;;10522070;28;45440;-62
2022/07/17 10:05:32;;;;;;;1.55;1.00;;;18.80;47.50;20.90;94669.00;;;;10521377;28;45104;-62
2022/07/17 10:10:53;;;;;;;1.83;1.13;;;18.80;47.80;20.90;94678.00;;;;10522210;27;45879;-61
2022/07/17 10:16:15;;;;;;;1.33;0.80;;;18.90;47.70;21.00;94672.00;;;;10519645;28;45784;-61
2022/07/17 10:21:35;;;;;;;1.27;0.80;;;18.80;48.40;21.00;94647.00;;;;10521997;28;45927;-62
2022/07/17 10:26:56;;;;;;;1.58;0.75;;;18.90;47.60;21.00;94682.00;;;;10521274;28;45690;-62
2022/07/17 10:32:20;;;;;;;1.60;0.70;;;18.90;47.40;21.00;94676.00;;;;10521371;28;45115;-61
2022/07/17 10:37:41;;;;;;;0.70;0.70;;;18.90;47.50;21.00;94685.00;;;;10521004;28;45323;-61
2022/07/17 10:43:04;;;;;;;1.45;0.80;;;18.90;47.50;21.00;94677.00;;;;10520701;28;45196;-62
2022/07/17 10:48:27;;;;;;;1.15;0.80;;;18.90;47.50;21.00;94679.00;;;;10520360;28;45803;-61
2022/07/17 10:53:48;;;;;;;1.50;0.80;;;18.90;47.50;21.00;94670.00;;;;10520443;28;45269;-62
2022/07/17 10:59:08;;;;;;;1.05;0.80;;;18.90;47.60;21.00;94667.00;;;;10519865;28;45681;-61
2022/07/17 11:04:39;;;;;;;2.25;0.70;;;18.90;47.60;21.00;94668.00;;;;10520059;28;45248;-62
2022/07/17 11:10:00;;;;;;;1.95;0.80;;;18.90;47.70;21.00;94660.00;;;;10520087;28;45870;-61
2022/07/17 11:15:20;;;;;;;1.33;0.88;;;18.90;47.80;21.00;94658.00;;;;10519722;28;45946;-62
2022/07/17 11:20:54;;;;;;;1.25;0.75;;;18.90;48.00;21.00;94642.00;;;;10519572;28;45161;-62
2022/07/17 11:26:15;;;;;;;1.67;0.90;;;18.90;47.80;21.10;94660.00;;;;10518542;27;45763;-61
2022/07/17 11:31:36;;;;;;;0.90;0.77;;;18.90;48.00;21.10;94660.00;;;;10520010;28;45465;-62
2022/07/17 11:37:02;;;;;;;0.90;0.80;;;18.90;47.80;21.10;94658.00;;;;10518771;28;45160;-62
2022/07/17 11:42:24;;;;;;;1.13;0.90;;;18.90;48.00;21.10;94663.00;;;;10519096;28;45112;-62
2022/07/17 11:47:48;;;;;;;2.65;1.02;;;18.90;48.00;21.10;94637.00;;;;10518654;28;45121;-62
2022/07/17 11:53:10;;;;;;;1.35;0.85;;;19.00;48.20;21.10;94643.00;;;;10518607;28;45867;-62
2022/07/17 11:58:43;;;;;;;1.98;1.02;;;19.00;48.10;21.10;94658.00;;;;10518419;28;45830;-61
2022/07/17 12:04:04;;;;;;;1.77;1.10;;;19.00;48.10;21.20;94656.00;;;;10518210;28;45864;-62
2022/07/17 12:09:29;;;;;;;2.25;1.00;;;19.00;48.10;21.10;94647.00;;;;10518188;28;45172;-61
2022/07/17 12:14:52;;;;;;;1.05;0.77;;;19.00;48.30;21.20;94642.00;;;;10518265;28;45237;-61
2022/07/17 12:20:13;;;;;;;1.08;0.70;;;19.10;48.30;21.20;94631.00;;;;10518342;28;45212;-62
2022/07/17 12:25:34;;;;;;;1.20;1.00;;;19.10;48.20;21.20;94647.00;;;;10517897;28;45220;-62
2022/07/17 12:30:55;;;;;;;0.95;0.77;;;19.10;48.40;21.20;94643.00;;;;10518310;28;45323;-62
2022/07/17 12:36:16;;;;;;;1.52;0.90;;;19.10;48.30;21.20;94642.00;;;;10519559;27;45281;-62
2022/07/17 12:41:38;;;;;;;1.70;0.95;;;19.10;48.40;21.20;94641.00;;;;10525270;28;45173;-62
2022/07/17 12:46:59;;;;;;;1.63;0.80;;;19.10;48.30;21.30;94641.00;;;;10523991;28;45193;-62
2022/07/17 12:52:19;;;;;;;1.15;0.75;;;19.20;48.50;21.30;94644.00;;;;10524670;28;45455;-62
2022/07/17 12:57:41;;;;;;;1.90;0.75;;;19.10;48.40;21.30;94635.00;;;;10524054;28;45211;-61
2022/07/17 13:03:04;;;;;;;1.45;1.00;;;19.20;48.40;21.30;94646.00;;;;10524146;28;45208;-62
2022/07/17 13:08:25;;;;;;;3.58;0.82;;;19.20;48.70;21.30;94639.00;;;;10522811;28;45130;-62
2022/07/17 13:13:47;;;;;;;1.55;0.80;;;19.20;48.70;21.30;94621.00;;;;10519220;28;45386;-62
2022/07/17 13:19:08;;;;;;;1.10;0.82;;;19.20;48.80;21.30;94639.00;;;;10523400;28;45182;-62
2022/07/17 13:24:29;;;;;;;1.80;0.73;;;19.20;48.80;21.40;94619.00;;;;10523187;28;45686;-62
2022/07/17 13:29:51;;;;;;;0.90;0.80;;;19.20;48.90;21.40;94624.00;;;;10523269;28;45767;-62
2022/07/17 13:35:12;;;;;;;1.15;0.95;;;19.20;48.80;21.40;94619.00;;;;10522279;28;45871;-62
2022/07/17 13:40:32;;;;;;;1.40;0.70;;;19.30;48.50;21.40;94599.00;;;;10522520;28;45145;-62
2022/07/17 13:45:54;;;;;;;1.10;0.90;;;19.20;49.20;21.40;94618.00;;;;10522047;28;45193;-62
2022/07/17 13:51:15;;;;;;;1.38;0.90;;;19.30;49.00;21.40;94612.00;;;;10522609;27;45441;-62
2022/07/17 13:56:36;;;;;;;0.90;0.60;;;19.30;48.80;21.40;94614.00;;;;10520571;28;46021;-62
2022/07/17 14:01:57;;;;;;;1.67;0.90;;;19.30;49.10;21.40;94604.00;;;;10522307;28;45160;-61
2022/07/17 14:07:18;;;;;;;1.35;0.80;;;19.20;49.00;21.40;94600.00;;;;10521777;28;45121;-62
2022/07/17 14:12:39;;;;;;;1.75;0.90;;;19.30;49.10;21.40;94599.00;;;;10521773;28;45227;-62
2022/07/17 14:18:00;;;;;;;2.83;0.95;;;19.30;49.00;21.40;94599.00;;;;10521420;28;45201;-62
2022/07/17 14:23:21;;;;;;;1.23;0.70;;;19.30;48.90;21.40;94589.00;;;;10521358;28;45128;-62
2022/07/17 14:28:42;;;;;;;1.23;0.70;;;19.30;49.00;21.40;94594.00;;;;10521319;28;45176;-62
2022/07/17 14:34:04;;;;;;;1.17;0.90;;;19.30;49.00;21.40;94588.00;;;;10520951;28;45165;-62
2022/07/17 14:39:25;;;;;;;1.48;0.80;;;19.30;48.90;21.50;94598.00;;;;10520529;28;45748;-61
2022/07/17 14:44:46;;;;;;;1.60;0.73;;;19.30;48.80;21.50;94593.00;;;;10520823;28;45140;-62
2022/07/17 14:50:10;;;;;;;1.20;0.73;;;19.30;48.80;21.50;94582.00;;;;10520456;28;45327;-62
2022/07/17 14:55:31;;;;;;;1.35;0.80;;;19.30;48.80;21.50;94591.00;;;;10519633;28;45986;-62
2022/07/17 15:00:51;;;;;;;0.90;0.75;;;19.30;48.70;21.50;94593.00;;;;10519593;27;45176;-62
2022/07/17 15:06:13;;;;;;;1.63;0.80;;;19.30;48.80;21.50;94587.00;;;;10497058;28;45175;-62
2022/07/17 15:11:33;;;;;;;1.15;0.70;;;19.40;49.50;21.50;94586.00;;;;10476733;28;45159;-62
2022/07/17 15:16:54;;;;;;;1.40;1.05;;;19.40;48.70;21.50;94588.00;;;;10475976;28;45883;-62
2022/07/17 15:22:16;;;;;;;1.67;0.80;;;19.40;48.70;21.50;94589.00;;;;10477433;28;45274;-62
2022/07/17 15:27:37;;;;;;;1.35;0.90;;;19.40;48.70;21.50;94590.00;;;;10481575;28;45217;-62
2022/07/17 15:32:59;;;;;;;1.00;0.80;;;19.40;48.70;21.60;94580.00;;;;10492084;22;45299;-61
2022/07/17 15:38:21;;;;;;;0.90;0.70;;;19.40;48.60;21.60;94576.00;;;;10518459;28;45195;-63
2022/07/17 15:43:42;;;;;;;1.23;0.70;;;19.50;48.60;21.60;94577.00;;;;10518908;28;45674;-63
2022/07/17 15:49:03;;;;;;;1.00;0.70;;;19.50;48.60;21.60;94583.00;;;;10518817;28;45132;-63
2022/07/17 15:54:24;;;;;;;1.25;0.90;;;19.50;48.60;21.70;94583.00;;;;10518670;28;45773;-62
2022/07/17 15:59:45;;;;;;;1.10;0.80;;;19.50;48.40;21.70;94586.00;;;;10518447;28;45101;-62
2022/07/17 16:05:07;;;;;;;0.80;0.70;;;19.50;48.40;21.70;94580.00;;;;10513584;28;45795;-61
2022/07/17 16:10:29;;;;;;;1.13;0.75;;;19.50;48.30;21.70;94571.00;;;;10517803;27;45194;-61
2022/07/17 16:15:51;;;;;;;1.17;0.70;;;19.50;48.20;21.70;94572.00;;;;10525334;28;45658;-62
2022/07/17 16:21:12;;;;;;;1.27;0.73;;;19.60;48.20;21.70;94577.00;;;;10520447;28;45304;-62
2022/07/17 16:26:34;;;;;;;1.42;0.75;;;19.60;48.10;21.70;94568.00;;;;10525188;28;45252;-62
2022/07/17 16:31:55;;;;;;;1.67;0.70;;;19.60;48.10;21.70;94556.00;;;;10525172;28;45251;-63
2022/07/17 16:37:15;;;;;;;0.75;0.55;;;19.70;48.00;21.80;94563.00;;;;10525122;28;45153;-63
2022/07/17 16:42:37;;;;;;;1.02;0.80;;;19.70;47.90;21.80;94571.00;;;;10525366;28;45505;-63
2022/07/17 16:47:58;;;;;;;1.00;0.90;;;19.70;47.90;21.80;94571.00;;;;10524298;28;45199;-63
2022/07/17 16:53:18;;;;;;;1.15;0.70;;;19.70;47.90;21.80;94555.00;;;;10523365;28;45519;-63
2022/07/17 16:58:40;;;;;;;1.75;0.95;;;19.70;47.90;22.00;94572.00;;;;10516585;28;45284;-60
2022/07/17 17:04:01;;;;;;;1.25;0.80;;;19.70;47.70;22.00;94574.00;;;;10523205;28;45843;-61
2022/07/17 17:09:21;;;;;;;0.80;0.70;;;19.80;47.70;22.00;94557.00;;;;10522824;28;45188;-60
2022/07/17 17:14:43;;;;;;;1.23;0.70;;;19.90;47.70;22.00;94566.00;;;;10521700;28;45125;-61
2022/07/17 17:20:05;;;;;;;2.05;0.90;;;19.90;47.60;22.10;94571.00;;;;10516165;28;45697;-63
2022/07/17 17:25:26;;;;;;;1.00;0.70;;;19.90;47.90;22.10;94575.00;;;;10520111;28;45171;-62
2022/07/17 17:30:48;;;;;;;0.98;0.60;;;20.00;47.80;22.10;94570.00;;;;10521822;28;45314;-61
2022/07/17 17:36:09;;;;;;;1.25;0.73;;;20.00;48.20;22.10;94575.00;;;;10522962;28;45789;-62
2022/07/17 17:41:30;;;;;;;0.80;0.60;;;20.00;48.20;22.10;94573.00;;;;10511780;28;45197;-62
2022/07/17 17:46:56;;;;;;;0.95;0.75;;;20.00;48.80;22.10;94576.00;;;;10480232;28;45693;-61
2022/07/17 17:52:16;;;;;;;1.15;0.70;;;20.00;49.00;22.10;94572.00;;;;10479527;28;45776;-62
2022/07/17 17:57:37;;;;;;;0.82;0.52;;;20.00;48.80;22.10;94582.00;;;;10480232;28;45154;-62
2022/07/17 18:02:58;;;;;;;0.90;0.60;;;20.00;48.90;22.00;94569.00;;;;10479687;28;45693;-62
2022/07/17 18:08:19;;;;;;;1.15;0.70;;;19.90;49.00;22.00;94592.00;;;;10479684;28;45678;-62
2022/07/17 18:13:40;;;;;;;1.02;0.80;;;19.90;48.90;22.00;94590.00;;;;10479321;28;45160;-62
2022/07/17 18:19:02;;;;;;;2.22;0.60;;;19.90;49.00;21.90;94587.00;;;;10479493;28;45951;-62
2022/07/17 18:24:23;;;;;;;0.90;0.70;;;19.80;48.90;21.90;94585.00;;;;10490402;28;45808;-62
2022/07/17 18:29:44;;;;;;;1.48;0.70;;;19.80;48.80;21.90;94592.00;;;;10521770;28;45133;-62
2022/07/17 18:35:07;;;;;;;0.93;0.70;;;19.80;48.90;21.90;94582.00;;;;10519939;28;45130;-62
2022/07/17 18:40:28;;;;;;;1.30;0.70;;;19.70;48.80;21.80;94588.00;;;;10521358;28;45869;-62
2022/07/17 18:45:49;;;;;;;1.50;0.70;;;19.70;49.30;21.80;94604.00;;;;10520987;28;45860;-62
2022/07/17 18:51:11;;;;;;;1.88;0.60;;;19.70;48.70;21.80;94616.00;;;;10512555;28;45365;-62
2022/07/17 18:56:32;;;;;;;0.70;0.55;;;19.70;48.50;21.80;94607.00;;;;10519542;28;45887;-62
2022/07/17 19:01:52;;;;;;;0.73;0.60;;;19.60;48.40;21.80;94626.00;;;;10520571;28;45219;-62
2022/07/17 19:07:14;;;;;;;1.52;0.90;;;19.60;48.60;21.80;94627.00;;;;10519770;28;45239;-62
2022/07/17 19:12:35;;;;;;;2.35;0.85;;;19.60;48.60;21.70;94621.00;;;;10519684;27;45207;-62
2022/07/17 19:17:56;;;;;;;1.38;0.70;;;19.50;48.60;21.70;94628.00;;;;10520377;28;45670;-62
2022/07/17 19:23:18;;;;;;;1.23;0.80;;;19.50;48.60;21.70;94639.00;;;;10520629;28;45823;-62
2022/07/17 19:28:39;;;;;;;1.90;0.60;;;19.50;48.70;21.70;94634.00;;;;10519518;28;45160;-62
2022/07/17 19:34:00;;;;;;;0.93;0.80;;;19.50;48.80;21.60;94628.00;;;;10519777;28;45451;-63
2022/07/17 19:39:21;;;;;;;0.85;0.60;;;19.50;48.80;21.70;94648.00;;;;10511015;28;45263;-63
2022/07/17 19:44:42;;;;;;;1.25;0.80;;;19.50;48.90;21.60;94647.00;;;;10508386;28;45978;-62
2022/07/17 19:50:03;;;;;;;0.95;0.70;;;19.50;49.10;21.60;94652.00;;;;10494252;28;45694;-62
2022/07/17 19:55:25;;;;;;;1.27;0.60;;;19.40;49.10;21.60;94670.00;;;;10526629;28;45228;-62
2022/07/17 20:00:46;;;;;;;0.70;0.60;;;19.40;49.30;21.60;94662.00;;;;10512837;28;45202;-62
2022/07/17 20:06:07;;;;;;;0.98;0.75;;;19.40;49.30;21.60;94668.00;;;;10490531;28;45170;-62
2022/07/17 20:11:30;;;;;;;0.73;0.60;;;19.40;49.30;21.60;94677.00;;;;10522002;28;45109;-62
2022/07/17 20:16:50;;;;;;;0.68;0.57;;;19.40;49.40;21.50;94678.00;;;;10525929;28;45178;-62
2022/07/17 20:22:11;;;;;;;1.58;0.50;;;19.40;49.40;21.50;94681.00;;;;10525243;28;45784;-62
2022/07/17 20:27:33;;;;;;;0.85;0.63;;;19.40;49.50;21.50;94678.00;;;;10525820;28;46086;-62
2022/07/17 20:32:53;;;;;;;1.02;0.50;;;19.40;49.60;21.50;94690.00;;;;10525393;28;45138;-62
2022/07/17 20:38:14;;;;;;;0.77;0.57;;;19.30;49.50;21.50;94683.00;;;;10525895;28;45845;-62
2022/07/17 20:43:37;;;;;;;0.60;0.57;;;19.30;49.60;21.50;94696.00;;;;10525889;28;45125;-62
2022/07/17 20:48:58;;;;;;;0.77;0.50;;;19.30;49.70;21.50;94694.00;;;;10525136;28;45755;-62
2022/07/17 20:54:18;;;;;;;1.08;0.63;;;19.30;49.70;21.50;94673.00;;;;10525310;28;45197;-62
2022/07/17 20:59:40;;;;;;;1.40;0.82;;;19.30;49.70;21.50;94682.00;;;;10523950;27;45802;-62
2022/07/17 21:05:02;;;;;;;0.60;0.50;;;19.30;49.70;21.50;94669.00;;;;10524441;28;45301;-62
2022/07/17 21:10:22;;;;;;;0.85;0.80;;;19.30;49.80;21.40;94679.00;;;;10524473;28;45150;-62
2022/07/17 21:15:44;;;;;;;0.90;0.60;;;19.30;49.80;21.40;94689.00;;;;10524130;28;45190;-62
2022/07/17 21:21:05;;;;;;;1.42;0.75;;;19.20;49.80;21.40;94677.00;;;;10524695;28;45666;-62
2022/07/17 21:26:26;;;;;;;0.85;0.60;;;19.30;49.90;21.40;94671.00;;;;10523839;28;45186;-62
2022/07/17 21:31:48;;;;;;;1.23;0.75;;;19.30;49.80;21.40;94662.00;;;;10524113;28;45825;-62
2022/07/17 21:37:08;;;;;;;1.10;0.80;;;19.20;49.80;21.40;94659.00;;;;10643942;22;45206;-62
2022/07/17 21:42:29;;;;;;;0.95;0.70;;;19.20;49.80;21.40;94675.00;;;;10607375;27;45163;-62
2022/07/17 21:47:51;;;;;;;1.55;0.60;;;19.20;49.70;21.40;94660.00;;;;10565579;27;45844;-62
2022/07/17 21:53:11;;;;;;;0.80;0.70;;;19.20;49.70;21.40;94658.00;;;;10565587;27;45740;-62
2022/07/17 21:58:34;;;;;;;1.23;0.80;;;19.20;49.70;21.40;94658.00;;;;10565057;27;45112;-62
2022/07/17 22:03:57;;;;;;;0.60;0.60;;;19.20;49.60;21.40;94664.00;;;;10564818;27;45846;-64
2022/07/17 22:09:18;;;;;;;0.77;0.70;;;19.20;49.80;21.40;94666.00;;;;10564583;27;45243;-62
2022/07/17 22:14:39;;;;;;;0.80;0.60;;;19.20;49.80;21.30;94676.00;;;;10564400;27;45283;-62
2022/07/17 22:20:02;;;;;;;1.13;0.70;;;19.20;49.80;21.30;94677.00;;;;10563959;27;45195;-61
2022/07/17 22:25:23;;;;;;;0.85;0.73;;;19.20;49.80;21.30;94677.00;;;;10563951;27;45059;-62
2022/07/17 22:30:44;;;;;;;0.93;0.63;;;19.20;49.70;21.30;94690.00;;;;10564302;27;45127;-62
2022/07/17 22:36:06;;;;;;;1.20;0.80;;;19.10;49.60;21.30;94689.00;;;;10563147;27;45127;-62
2022/07/17 22:41:27;;;;;;;1.45;0.88;;;19.10;49.60;21.30;94673.00;;;;10564302;27;45203;-62
2022/07/17 22:46:47;;;;;;;0.80;0.80;;;19.10;49.60;21.30;94679.00;;;;10563116;27;45241;-62
2022/07/17 22:52:09;;;;;;;1.63;1.00;;;19.10;49.60;21.30;94676.00;;;;10563306;27;45193;-62
2022/07/17 22:57:29;;;;;;;1.17;0.98;;;19.10;49.40;21.30;94677.00;;;;10563120;27;45168;-63
2022/07/17 23:02:50;;;;;;;1.08;0.80;;;19.10;49.40;21.30;94674.00;;;;10563175;27;46101;-62
2022/07/17 23:08:13;;;;;;;1.25;0.73;;;19.10;49.40;21.20;94680.00;;;;10562670;27;45877;-62
2022/07/17 23:13:34;;;;;;;0.77;0.70;;;19.10;49.50;21.20;94668.00;;;;10562987;27;45150;-62
2022/07/17 23:18:54;;;;;;;0.90;0.60;;;19.10;49.40;21.30;94676.00;;;;10561904;27;45234;-62
2022/07/17 23:24:16;;;;;;;0.70;0.70;;;19.10;49.40;21.30;94677.00;;;;10562541;27;45187;-61
2022/07/17 23:29:37;;;;;;;1.20;0.80;;;19.10;49.40;21.30;94666.00;;;;10561903;27;45236;-61
2022/07/17 23:35:01;;;;;;;0.82;0.68;;;19.10;49.20;21.30;94659.00;;;;10562128;27;45177;-62